Flight Track Log - Related Links

Times and Time Zones

All times are in EDT time to prevent confusion due to time zone crossing. See the N850UA flight status page for this flight to view local times or setup timezone preferences in your user account.

Time Position Orientation Groundspeed Altitude Reporting Facility
EDT Latitude Longitude Course Direction KTS MPH feet Rate Location/Type
Mon 03:47:41 PM 29.9661 -95.3456 277° West 136 157 600  Level Houston Center
Mon 03:48:49 PM 29.9256 -95.3842 220° Southwest 205 236 2,700 1,832 Climbing Houston Center
Mon 03:49:16 PM 29.9150 -95.4019 236° Southwest 217 250 3,500 2,060 Climbing Houston Center
Mon 03:49:56 PM 29.8833 -95.4519 234° Southwest 254 292 5,000 2,323 Climbing Houston Center
Mon 03:50:18 PM 29.8750 -95.4639 231° Southwest 238 274 5,900 3,164 Climbing Houston Center
Mon 03:50:51 PM 29.8428 -95.5119 232° Southwest 267 307 7,900 2,806 Climbing Houston Center
Mon 03:51:00 PM 30.0349 -95.8186 276° West  Level FlightAware Approximate
Mon 03:51:20 PM 29.8303 -95.5333 236° Southwest 267 307 8,800  Level Houston Center
Mon 03:51:58 PM 29.8447 -95.6033 283° West 284 327 11,800 3,484 Climbing Houston Center
Mon 03:52:00 PM 30.0451 -95.9407 276° West  Level FlightAware Approximate
Mon 03:52:22 PM 29.8619 -95.6319 305° West 278 320 12,400  Level Houston Center
Mon 03:53:00 PM 30.0677 -96.0595 277° West  Level FlightAware Approximate
Mon 03:53:24 PM 29.9072 -95.7306 298° West 337 388 13,400  Level Houston Center
Mon 03:54:27 PM 29.9611 -95.8406 300° West 391 450 15,000 1,776 Climbing Houston Center
Mon 03:55:29 PM 30.0164 -95.9553 299° West 406 467 17,100 2,274 Climbing Houston Center
Mon 03:56:31 PM 30.0775 -96.0833 299° West 411 473 19,700 2,419 Climbing Houston Center
Mon 03:57:33 PM 30.0922 -96.2100 278° West 400 460 22,100 1,645 Climbing Houston Center
Mon 03:58:35 PM 30.1133 -96.3386 281° West 406 467 23,100 871 Climbing Houston Center
Mon 03:59:37 PM 30.1344 -96.4789 280° West 431 496 23,900 1,258 Climbing Houston Center
Mon 04:00:39 PM 30.1586 -96.6450 280° West 442 509 25,700 1,742 Climbing Houston Center
Mon 04:01:41 PM 30.1800 -96.7861 280° West 441 507 27,500 2,081 Climbing Houston Center
Mon 04:02:43 PM 30.2008 -96.9225 280° West 428 493 30,000 1,536 Climbing Houston Center
Mon 04:03:46 PM 30.2203 -97.0550 280° West 416 479 30,700 1,008 Climbing Houston Center
Mon 04:04:48 PM 30.2408 -97.1931 280° West 426 490 32,100 1,548 Climbing Houston Center
Mon 04:05:50 PM 30.2597 -97.3275 279° West 420 483 33,900 1,548 Climbing Houston Center
Mon 04:06:52 PM 30.2789 -97.4561 280° West 404 465 35,300 1,016 Climbing Houston Center
Mon 04:07:54 PM 30.2975 -97.5875 279° West 406 467 36,000 339 Climbing Houston Center
Mon 04:08:56 PM 30.3192 -97.7333 280° West 393 452 36,000  Level Houston Center
Mon 04:09:58 PM 30.3364 -97.8617 279° West 398 458 36,000  Level Houston Center
Mon 04:11:00 PM 30.3550 -97.9892 280° West 398 458 36,000  Level Houston Center
Mon 04:12:03 PM 30.3722 -98.1167 279° West 397 457 36,000  Level Houston Center
Mon 04:13:05 PM 30.3906 -98.2458 279° West 401 461 36,000  Level Houston Center
Mon 04:14:07 PM 30.4092 -98.3739 280° West 397 457 36,000  Level Houston Center
Mon 04:15:09 PM 30.4331 -98.5028 282° West 403 464 36,000  Level Houston Center
Mon 04:16:11 PM 30.4600 -98.6308 284° West 405 466 36,000  Level Houston Center
Mon 04:17:13 PM 30.4903 -98.7797 283° West 405 466 36,000  Level Houston Center
Mon 04:18:15 PM 30.5183 -98.9086 284° West 406 467 36,000  Level Houston Center
Mon 04:19:17 PM 30.5456 -99.0361 284° West 405 466 36,000 -48 Level Houston Center
Mon 04:20:19 PM 30.5703 -99.1514 284° West 404 465 35,900  Descending Houston Center
Mon 04:21:22 PM 30.6017 -99.3036 284° West 405 466 36,000 48 Climbing Houston Center
Mon 04:22:24 PM 30.6264 -99.4272 283° West 398 458 36,000  Level Houston Center
Mon 04:23:26 PM 30.6508 -99.5506 283° West 394 453 36,000  Level Houston Center
Mon 04:24:28 PM 30.6761 -99.6753 283° West 397 457 36,000 -48 Level Houston Center
Mon 04:25:30 PM 30.7006 -99.8017 283° West 401 461 35,900 -48 Descending Houston Center
Mon 04:26:32 PM 30.7317 -99.9539 283° West 406 467 35,900 48 Level Houston Center
Mon 04:27:34 PM 30.7561 -100.0800 283° West 402 463 36,000  Climbing Houston Center
Mon 04:28:36 PM 30.7811 -100.2083 283° West 412 474 35,900 -48 Descending Houston Center
Mon 04:29:38 PM 30.8064 -100.3339 283° West 404 465 35,900 48 Level Houston Center
Mon 04:30:41 PM 30.8306 -100.4628 282° West 408 470 36,000 48 Climbing Houston Center
Mon 04:31:43 PM 30.8603 -100.6153 283° West 405 466 36,000  Level Houston Center
Mon 04:32:45 PM 30.8850 -100.7436 283° West 410 472 36,000  Level Houston Center
Mon 04:33:47 PM 30.9092 -100.8786 282° West 424 488 36,000 339 Level Houston Center
Mon 04:34:49 PM 30.9342 -101.0042 283° West 401 461 36,700 871 Climbing Houston Center
Mon 04:35:51 PM 30.9572 -101.1308 282° West 399 459 37,800 629 Climbing Houston Center
Mon 04:36:53 PM 30.9886 -101.2758 284° West 391 450 38,000 48 Climbing Houston Center
Mon 04:37:55 PM 31.0114 -101.4094 281° West 399 459 37,900  Descending Houston Center
Mon 04:38:15 PM 31.0153 -101.4342 280° West 399 459 38,000  Climbing Albuquerque Center
Mon 04:39:17 PM 31.0389 -101.5586 283° West 397 457 37,900 -48 Descending Albuquerque Center
Mon 04:40:19 PM 31.0614 -101.6831 282° West 394 453 37,900  Level Albuquerque Center
Mon 04:41:21 PM 31.0878 -101.8322 282° West 392 451 37,900 48 Level Albuquerque Center
Mon 04:42:23 PM 31.1089 -101.9531 282° West 407 468 38,000 49 Climbing Albuquerque Center
Mon 04:43:24 PM 31.1319 -102.0825 282° West 408 470 38,000  Level Albuquerque Center
Mon 04:44:26 PM 31.1550 -102.2100 282° West 403 464 38,000 48 Level Albuquerque Center
Mon 04:45:28 PM 31.1786 -102.3397 282° West 407 468 38,100 48 Climbing Albuquerque Center
Mon 04:46:30 PM 31.2058 -102.4953 282° West 408 470 38,100 -48 Level Albuquerque Center
Mon 04:47:32 PM 31.2264 -102.6144 281° West 403 464 38,000 -97 Descending Albuquerque Center
Mon 04:48:34 PM 31.2494 -102.7436 282° West 405 466 37,900 -48 Descending Albuquerque Center
Mon 04:49:36 PM 31.2758 -102.8969 281° West 402 463 37,900  Level Albuquerque Center
Mon 04:50:38 PM 31.2978 -103.0244 281° West 401 461 37,900 48 Level Albuquerque Center
Mon 04:51:40 PM 31.3189 -103.1522 281° West 402 463 38,000  Climbing Albuquerque Center
Mon 04:52:42 PM 31.3414 -103.2797 282° West 401 461 37,900 -48 Descending Albuquerque Center
Mon 04:53:44 PM 31.3628 -103.4064 281° West 399 459 37,900  Level Albuquerque Center
Mon 04:54:46 PM 31.3833 -103.5336 281° West 399 459 37,900 48 Level Albuquerque Center
Mon 04:55:48 PM 31.4056 -103.6619 282° West 402 463 38,000 48 Climbing Albuquerque Center
Mon 04:56:50 PM 31.4297 -103.7942 282° West 408 470 38,000  Level Albuquerque Center
Mon 04:57:52 PM 31.4533 -103.9500 280° West 407 468 38,000 -48 Level Albuquerque Center
Mon 04:58:54 PM 31.4775 -104.0792 282° West 407 468 37,900 -48 Descending Albuquerque Center
Mon 04:59:56 PM 31.4994 -104.2092 281° West 409 471 37,900  Level Albuquerque Center
Mon 05:00:58 PM 31.5325 -104.3367 287° West 408 470 37,900 48 Level Albuquerque Center
Mon 05:02:00 PM 31.5669 -104.4650 288° West 410 472 38,000 48 Climbing Albuquerque Center
Mon 05:03:02 PM 31.6075 -104.6189 287° West 413 475 38,000 -48 Level Albuquerque Center
Mon 05:04:04 PM 31.6414 -104.7472 287° West 414 476 37,900  Descending Albuquerque Center
Mon 05:05:05 PM 31.6744 -104.8750 287° West 414 476 38,000 49 Climbing Albuquerque Center
Mon 05:06:07 PM 31.7075 -105.0036 287° West 415 478 38,000 -48 Level Albuquerque Center
Mon 05:07:09 PM 31.7411 -105.1300 287° West 411 473 37,900 -48 Descending Albuquerque Center
Mon 05:08:11 PM 31.7733 -105.2564 287° West 408 470 37,900  Level Albuquerque Center
Mon 05:09:13 PM 31.8125 -105.4083 287° West 408 470 37,900 48 Level Albuquerque Center
Mon 05:10:15 PM 31.8442 -105.5353 286° West 407 468 38,000  Climbing Albuquerque Center
Mon 05:11:17 PM 31.8761 -105.6622 287° West 406 467 37,900  Descending Albuquerque Center
Mon 05:12:19 PM 31.9089 -105.7889 287° West 407 468 38,000 48 Climbing Albuquerque Center
Mon 05:13:21 PM 31.9403 -105.9164 286° West 407 468 38,000  Level Albuquerque Center
Mon 05:14:23 PM 31.9733 -106.0472 287° West 411 473 38,000  Level Albuquerque Center
Mon 05:15:25 PM 32.0122 -106.2017 287° West 411 473 38,000 -48 Level Albuquerque Center
Mon 05:16:27 PM 32.0433 -106.3300 286° West 409 471 37,900 -48 Descending Albuquerque Center
Mon 05:17:29 PM 32.0758 -106.4586 287° West 410 472 37,900  Level Albuquerque Center
Mon 05:18:30 PM 32.1069 -106.5875 286° West 409 471 37,900 49 Level Albuquerque Center
Mon 05:19:32 PM 32.1389 -106.7175 286° West 412 474 38,000 48 Climbing Albuquerque Center
Mon 05:20:34 PM 32.1708 -106.8492 286° West 415 478 38,000  Level Albuquerque Center
Mon 05:21:36 PM 32.2094 -107.0072 286° West 411 473 38,000  Level Albuquerque Center
Mon 05:22:38 PM 32.2411 -107.1358 286° West 410 472 38,000  Level Albuquerque Center
Mon 05:23:40 PM 32.2667 -107.2528 285° West 410 472 38,000  Level Albuquerque Center
Mon 05:24:42 PM 32.2958 -107.3808 285° West 409 471 38,000 -48 Level Albuquerque Center
Mon 05:25:44 PM 32.3317 -107.5261 286° West 406 467 37,900 -48 Descending Albuquerque Center
Mon 05:26:46 PM 32.3608 -107.6544 285° West 403 464 37,900  Level Albuquerque Center
Mon 05:27:48 PM 32.3914 -107.7856 285° West 409 471 37,900  Level Albuquerque Center
Mon 05:28:50 PM 32.4214 -107.9178 285° West 413 475 37,900 48 Level Albuquerque Center
Mon 05:29:52 PM 32.4522 -108.0525 285° West 418 481 38,000 48 Climbing Albuquerque Center
Mon 05:30:54 PM 32.4897 -108.2114 286° West 420 483 38,000  Level Albuquerque Center
Mon 05:31:56 PM 32.5197 -108.3411 285° West 417 480 38,000  Level Albuquerque Center
Mon 05:32:57 PM 32.5489 -108.4692 285° West 410 472 38,000 -49 Level Albuquerque Center
Mon 05:33:59 PM 32.5778 -108.5989 285° West 409 471 37,900 -48 Descending Albuquerque Center
Mon 05:35:01 PM 32.6067 -108.7283 285° West 408 470 37,900 48 Level Albuquerque Center
Mon 05:36:03 PM 32.6356 -108.8586 285° West 409 471 38,000 48 Climbing Albuquerque Center
Mon 05:37:05 PM 32.6711 -109.0161 285° West 411 473 38,000  Level Albuquerque Center
Mon 05:38:07 PM 32.7003 -109.1478 285° West 412 474 38,000  Level Albuquerque Center
Mon 05:39:09 PM 32.7294 -109.2794 285° West 412 474 38,000  Level Albuquerque Center
Mon 05:40:10 PM 32.7592 -109.4089 285° West 411 473 38,000  Level Albuquerque Center
Mon 05:41:12 PM 32.7864 -109.5386 284° West 409 471 38,000  Level Albuquerque Center
Mon 05:42:14 PM 32.8142 -109.6678 284° West 407 468 38,000 -48 Level Albuquerque Center
Mon 05:43:16 PM 32.8422 -109.7961 285° West 406 467 37,900  Descending Albuquerque Center
Mon 05:44:18 PM 32.8761 -109.9525 285° West 409 471 38,000 48 Climbing Albuquerque Center
Mon 05:45:20 PM 32.9047 -110.0839 285° West 413 475 38,000  Level Albuquerque Center
Mon 05:46:21 PM 32.9333 -110.2131 285° West 410 472 38,000  Level Albuquerque Center
Mon 05:47:23 PM 32.9606 -110.3439 284° West 409 471 38,000 48 Level Albuquerque Center
Mon 05:48:25 PM 32.9878 -110.4736 284° West 409 471 38,100  Climbing Albuquerque Center
Mon 05:49:26 PM 33.0206 -110.6297 284° West 409 471 38,000 -49 Descending Albuquerque Center
Mon 05:50:28 PM 33.0489 -110.7619 284° West 407 468 38,000  Level Albuquerque Center
Mon 05:51:30 PM 33.0750 -110.8933 283° West 407 468 38,000  Level Albuquerque Center
Mon 05:52:31 PM 33.1022 -111.0231 284° West 404 465 38,000  Level Albuquerque Center
Mon 05:53:33 PM 33.1283 -111.1533 283° West 405 466 38,000  Level Albuquerque Center
Mon 05:54:35 PM 33.1561 -111.2842 284° West 407 468 38,000  Level Albuquerque Center
Mon 05:55:36 PM 33.1814 -111.4172 283° West 408 470 38,000  Level Albuquerque Center
Mon 05:56:38 PM 33.2083 -111.5511 284° West 412 474 38,000  Level Albuquerque Center
Mon 05:57:40 PM 33.2339 -111.6819 283° West 405 466 38,000  Level Albuquerque Center
Mon 05:58:41 PM 33.2644 -111.8400 283° West 406 467 38,000  Level Albuquerque Center
Mon 05:59:43 PM 33.2908 -111.9711 284° West 405 466 38,000  Level Albuquerque Center
Mon 06:00:44 PM 33.3158 -112.1028 283° West 405 466 38,000  Level Albuquerque Center
Mon 06:01:46 PM 33.3414 -112.2339 283° West 405 466 38,000  Level Albuquerque Center
Mon 06:02:48 PM 33.3664 -112.3664 283° West 407 468 38,000  Level Albuquerque Center
Mon 06:03:50 PM 33.3922 -112.4983 283° West 407 468 38,000 -49 Level Albuquerque Center
Mon 06:04:51 PM 33.4192 -112.6389 283° West 402 463 37,900  Descending Albuquerque Center
Mon 06:05:53 PM 33.4436 -112.7689 283° West 402 463 38,000  Climbing Albuquerque Center
Mon 06:06:54 PM 33.4681 -112.9003 283° West 405 466 37,900 -98 Descending Albuquerque Center
Mon 06:07:56 PM 33.4939 -113.0314 283° West 406 467 37,800 -532 Descending Albuquerque Center
Mon 06:08:58 PM 33.5192 -113.1611 283° West 404 465 36,800 -1,268 Descending Albuquerque Center
Mon 06:09:59 PM 33.5483 -113.3150 283° West 398 458 35,200 -1,268 Descending Albuquerque Center
Mon 06:11:01 PM 33.5728 -113.4428 283° West 396 456 34,200 -585 Descending Albuquerque Center
Mon 06:12:02 PM 33.5964 -113.5728 282° West 398 458 34,000 -98 Descending Albuquerque Center
Mon 06:13:04 PM 33.6197 -113.6978 283° West 401 461 34,000  Level Albuquerque Center
Mon 06:14:06 PM 33.6433 -113.8269 282° West 399 459 34,000  Level Albuquerque Center
Mon 06:15:08 PM 33.6611 -113.9825 278° West 390 449 34,000  Level Albuquerque Center
Mon 06:16:09 PM 33.6736 -114.1136 277° West 394 453 34,000  Level Albuquerque Center
Mon 06:17:11 PM 33.6867 -114.2464 277° West 391 450 34,000  Level Albuquerque Center
Mon 06:18:13 PM 33.6986 -114.3775 276° West 394 453 34,000  Level Albuquerque Center
Mon 06:19:00 PM 33.7081 -114.4694 277° West 396 456 34,000  Level Los Angeles Center
Mon 06:20:02 PM 33.7219 -114.6275 276° West 398 458 34,000 -48 Level Los Angeles Center
Mon 06:21:04 PM 33.7350 -114.7583 277° West 397 457 33,900 -48 Descending Los Angeles Center
Mon 06:22:06 PM 33.7456 -114.8906 276° West 398 458 33,900 49 Level Los Angeles Center
Mon 06:23:07 PM 33.7586 -115.0239 277° West 402 463 34,000 49 Climbing Los Angeles Center
Mon 06:24:09 PM 33.7686 -115.1575 275° West 405 466 34,000 -290 Level Los Angeles Center
Mon 06:25:11 PM 33.7800 -115.2900 276° West 400 460 33,400 -871 Descending Los Angeles Center
Mon 06:26:13 PM 33.7936 -115.4489 276° West 400 460 32,200 -1,016 Descending Los Angeles Center
Mon 06:27:15 PM 33.8044 -115.5789 276° West 396 456 31,300 -919 Descending Los Angeles Center
Mon 06:28:17 PM 33.8142 -115.7092 275° West 393 452 30,300 -677 Descending Los Angeles Center
Mon 06:29:19 PM 33.8244 -115.8347 276° West 383 441 29,900 -629 Descending Los Angeles Center
Mon 06:30:21 PM 33.8350 -115.9592 276° West 378 435 29,000 -927 Descending Los Angeles Center
Mon 06:31:22 PM 33.8444 -116.0842 275° West 379 436 28,000 -1,756 Descending Los Angeles Center
Mon 06:32:24 PM 33.8556 -116.2317 275° West 373 429 25,400 -2,323 Descending Los Angeles Center
Mon 06:33:26 PM 33.8644 -116.3503 275° West 361 415 23,200 -2,081 Descending Los Angeles Center
Mon 06:34:28 PM 33.8733 -116.4672 275° West 355 409 21,100 -2,032 Descending Los Angeles Center
Mon 06:35:30 PM 33.8772 -116.5783 272° West 339 390 19,000 -2,032 Descending Los Angeles Center
Mon 06:36:32 PM 33.8825 -116.6842 273° West 323 372 16,900 -2,419 Descending Los Angeles Center
Mon 06:37:34 PM 33.8889 -116.7939 274° West 328 377 14,000 -1,452 Descending Los Angeles Center
Mon 06:38:36 PM 33.8794 -116.9181 265° West 307 353 13,900 -339 Descending Los Angeles Center
Mon 06:39:38 PM 33.8653 -117.0142 260° West 296 341 13,300 -968 Descending Los Angeles Center
Mon 06:40:40 PM 33.8528 -117.1042 261° West 269 310 11,900 -1,452 Descending Los Angeles Center
Mon 06:41:42 PM 33.8397 -117.1900 260° West 262 302 10,300 -1,452 Descending Los Angeles Center
Mon 06:42:44 PM 33.8272 -117.2753 260° West 261 300 8,900 -1,113 Descending Los Angeles Center
Mon 06:43:46 PM 33.8153 -117.3564 260° West 249 287 8,000 -435 Descending Los Angeles Center
Mon 06:44:48 PM 33.8036 -117.4331 260° West 237 273 8,000 -97 Level Los Angeles Center
Mon 06:45:50 PM 33.7908 -117.5225 260° West 228 262 7,800 -387 Descending Los Angeles Center
Mon 06:46:52 PM 33.7817 -117.5867 260° West 204 235 7,200 -537 Descending Los Angeles Center
Mon 06:47:53 PM 33.7833 -117.6500 272° West 194 223 6,700 -945 Descending Southern California TRACON
Mon 06:48:59 PM 33.8167 -117.7167 301° West 206 237 5,200 -1,238 Descending Southern California TRACON
Mon 06:49:59 PM 33.8333 -117.7833 287° West 224 258 4,100 -1,200 Descending Southern California TRACON
Mon 06:50:59 PM 33.7833 -117.8000 195° South 164 189 2,800 -1,300 Descending Southern California TRACON

Login

Don't have an account? Register now (free) for customized features, flight alerts, and more!